עמוד ראשי
METAR-TAF:

METAR-TAF

שדות תעופה :

Chitose, יפן

קו רוחב: 42-48N, קו אורך: 141-40E, גובה: 27מטר

תצפית מזג אוויר נוכחית

הדו"ח נערך לפני 45דקות, בשעה 10:30 UTC
רוח 7קשר מכיוון דרום-מזרח
טמפרטורת 21 צלסיוס
לחות 88%
לחץ 1016 hPa
ראות 10 קילומטר או יותר
מעט עננים בגובה 3000רגל
עננים פזורים בגובה 5000רגל
עננים בינוניים

METAR: RJCC 141030Z 14007KT 9999 FEW030 SCT050 BKN/// 21/19 Q1016

זמן: 20:15 (11:15 UTC)

תחזית

הדו"ח נערך לפני 6 שעות ו 10דקות, בשעה 05:05 UTC
תחזית בתוקף מ 14 ב 06 UTC עד 15 ב 12 UTC
רוח 11קשר מכיוון דרום
ראות 10 קילומטר או יותר
מעט עננים בגובה 800רגל
עננים פזורים בגובה 1500רגל
זמנית מ -
14 ב 12 UTC עד 15 ב 00 UTC
מעט עננים בגובה 400רגל
עננים בינוניים בגובה 600רגל
זמנית מ -
15 ב 09 UTC עד 15 ב 12 UTC
מעט עננים בגובה 400רגל
עננים בינוניים בגובה 600רגל

TAF: RJCC 140505Z 1406/1512 17011KT 9999 FEW008 SCT015 TEMPO 1412/1500 FEW004 BKN006 TEMPO 1509/1512 FEW004 BKN006

תצפיות ותחזיות מזג אוויר לגבי יותר מ- 4,000 שדות תעופה ברחבי העולם. דוחות METAR ו- TAF.

התחנות הזמינות מסומנות בנקודות צהובות ואדומות על גבי המפה.

העבר את העכבר לנקודה הצבעונית על מנת לראות את שם התחנה.

לאחר מכן, לחץ כדי לראות את תוכן ואת תחזיות מזג האוויר.

כדי לשנות את המפה: לחץ על הכפתורים הירוקים עם הפלוס השחור כדי להתקרב; על הכפתור הירוק עם המקף כדי להתרחק; או בחיצים הירוקים למפות סמוכות.


METAR-TAF: